Time;durP1;ratioP1;P1;durP2;ratioP2;P2;SDS_P1;SDS_P2;PMS_P1;PMS_P2;Temp;Humidity;BMP_temperature;BMP_pressure;BME280_temperature;BME280_humidity;BME280_pressure;Samples;Min_cycle;Max_cycle;Signal;HPM_P1;HPM_P2
2024/02/07 00:00:54;;;;;;;9.70;1.77;;;;;;;5.92;100.00;99215.63;5008799;28;20442;-71
2024/02/07 00:03:20;;;;;;;18.43;3.10;;;;;;;5.55;100.00;99154.91;5022012;28;20183;-70
2024/02/07 00:05:45;;;;;;;16.23;2.20;;;;;;;5.68;100.00;99180.69;5023935;28;20180;-70
2024/02/07 00:08:11;;;;;;;15.50;2.50;;;;;;;5.86;100.00;99191.47;5013614;28;20293;-70
2024/02/07 00:10:36;;;;;;;16.00;2.10;;;;;;;5.66;100.00;99167.56;5019982;28;20204;-70
2024/02/07 00:13:02;;;;;;;18.13;2.27;;;;;;;5.86;100.00;99215.41;5020232;28;20298;-71
2024/02/07 00:15:27;;;;;;;10.43;2.00;;;;;;;5.83;100.00;99209.69;5021458;28;20192;-71
2024/02/07 00:17:53;;;;;;;12.13;1.83;;;;;;;6.07;100.00;99224.22;5016035;28;20195;-70
2024/02/07 00:20:18;;;;;;;13.87;2.47;;;;;;;6.08;100.00;99223.19;5012698;28;20204;-70
2024/02/07 00:22:44;;;;;;;12.13;2.20;;;;;;;6.04;100.00;99229.94;5021033;28;20435;-70
2024/02/07 00:25:09;;;;;;;17.10;2.60;;;;;;;5.76;100.00;99190.28;5019998;28;20192;-70
2024/02/07 00:27:35;;;;;;;9.07;2.60;;;;;;;5.79;100.00;99203.19;5012876;28;20187;-70
2024/02/07 00:30:00;;;;;;;13.70;2.30;;;;;;;5.92;100.00;99227.06;5015648;28;20301;-71
2024/02/07 00:32:26;;;;;;;16.50;2.77;;;;;;;5.93;100.00;99225.22;5012911;28;20208;-70
2024/02/07 00:34:51;;;;;;;9.73;1.90;;;;;;;5.81;100.00;99225.88;5020264;28;20602;-71
2024/02/07 00:37:17;;;;;;;15.90;2.97;;;;;;;5.61;100.00;99171.88;5019670;28;20586;-69
2024/02/07 00:39:44;;;;;;;12.77;2.20;;;;;;;5.44;100.00;99152.91;5020977;28;20196;-70
2024/02/07 00:42:10;;;;;;;15.00;1.93;;;;;;;5.92;100.00;99237.72;5017748;28;20275;-70
2024/02/07 00:44:36;;;;;;;14.97;3.90;;;;;;;5.58;100.00;99177.59;5017694;28;20481;-70
2024/02/07 00:47:02;;;;;;;11.40;2.03;;;;;;;5.25;100.00;99125.28;5016619;28;20620;-70
2024/02/07 00:49:27;;;;;;;18.33;3.33;;;;;;;5.97;100.00;99239.81;5022733;28;20459;-70
2024/02/07 00:51:52;;;;;;;15.50;2.50;;;;;;;5.77;100.00;99224.66;5007479;28;20188;-71
2024/02/07 00:54:18;;;;;;;14.57;2.93;;;;;;;5.83;100.00;99234.47;5018923;28;20196;-70
2024/02/07 00:56:43;;;;;;;19.13;3.03;;;;;;;5.72;100.00;99210.34;5016187;28;20184;-70
2024/02/07 00:59:09;;;;;;;13.27;2.37;;;;;;;5.81;100.00;99217.06;5021691;28;20713;-70
2024/02/07 01:01:34;;;;;;;19.47;2.47;;;;;;;5.86;100.00;99222.59;5000590;28;20193;-70
2024/02/07 01:03:59;;;;;;;11.53;2.50;;;;;;;5.33;100.00;99138.38;5005913;28;20193;-70
2024/02/07 01:06:25;;;;;;;16.00;2.43;;;;;;;5.92;100.00;99236.91;5004493;28;20193;-70
2024/02/07 01:08:50;;;;;;;15.83;3.13;;;;;;;5.75;100.00;99199.28;5006592;28;20215;-71
2024/02/07 01:11:16;;;;;;;21.50;2.97;;;;;;;5.18;100.00;99114.69;5009533;28;20200;-70
2024/02/07 01:13:41;;;;;;;18.80;3.47;;;;;;;5.44;100.00;99152.91;5014887;28;20212;-70
2024/02/07 01:16:07;;;;;;;8.87;2.30;;;;;;;5.92;100.00;99242.22;5011420;28;20184;-70
2024/02/07 01:18:32;;;;;;;15.10;2.03;;;;;;;5.83;100.00;99231.00;5013074;28;20214;-70
2024/02/07 01:20:58;;;;;;;11.77;2.70;;;;;;;5.53;100.00;99201.38;5008041;28;20212;-70
2024/02/07 01:23:23;;;;;;;23.27;3.20;;;;;;;5.92;100.00;99252.88;5013324;28;20189;-70
2024/02/07 01:25:48;;;;;;;24.17;3.13;;;;;;;6.00;100.00;99277.47;4999964;28;20184;-70
2024/02/07 01:28:15;;;;;;;15.00;3.00;;;;;;;6.06;100.00;99263.31;5005893;28;20202;-70
2024/02/07 01:30:41;;;;;;;18.07;2.40;;;;;;;5.92;100.00;99250.22;5024995;28;20199;-70
2024/02/07 01:33:07;;;;;;;18.63;3.77;;;;;;;5.96;100.00;99238.16;5018202;28;20477;-70
2024/02/07 01:35:32;;;;;;;21.90;4.13;;;;;;;6.09;100.00;99222.97;5012522;28;20439;-70
2024/02/07 01:38:05;;;;;;;23.53;4.10;;;;;;;6.00;100.00;99210.13;5017624;28;20188;-70
2024/02/07 01:40:43;;;;;;;18.53;3.37;;;;;;;6.26;100.00;99249.97;5015159;28;20200;-71
2024/02/07 01:43:12;;;;;;;22.57;3.30;;;;;;;6.19;100.00;99254.50;5011352;28;20442;-70
2024/02/07 01:45:38;;;;;;;23.40;4.40;;;;;;;6.34;100.00;99294.19;5018925;28;20516;-70
2024/02/07 01:48:04;;;;;;;21.97;3.50;;;;;;;6.19;100.00;99299.75;5007458;28;20450;-70
2024/02/07 01:50:31;;;;;;;20.87;3.60;;;;;;;6.10;100.00;99299.16;5018830;28;20562;-70
2024/02/07 01:53:02;;;;;;;22.20;3.50;;;;;;;6.07;100.00;99312.84;5013314;28;20471;-69
2024/02/07 01:55:28;;;;;;;25.40;4.30;;;;;;;6.13;100.00;99294.44;5018207;28;21274;-70
2024/02/07 01:57:55;;;;;;;20.73;4.07;;;;;;;6.04;100.00;99313.28;5007335;28;20478;-70
2024/02/07 02:00:24;;;;;;;25.40;4.87;;;;;;;6.29;100.00;99345.41;5015344;28;20521;-70
2024/02/07 02:02:52;;;;;;;20.00;3.60;;;;;;;5.77;100.00;99309.78;5007584;28;20446;-70
2024/02/07 02:05:18;;;;;;;14.53;3.63;;;;;;;6.20;100.00;99375.13;5002904;28;20451;-70
2024/02/07 02:07:44;;;;;;;21.80;3.20;;;;;;;6.16;100.00;99372.03;5022741;28;20443;-70
2024/02/07 02:10:11;;;;;;;16.80;3.30;;;;;;;5.62;100.00;99288.72;5015360;28;20224;-70
2024/02/07 02:12:37;;;;;;;16.70;3.70;;;;;;;6.19;100.00;99381.47;5014184;28;20459;-70
2024/02/07 02:15:05;;;;;;;25.80;3.77;;;;;;;6.05;100.00;99386.00;5018324;28;20856;-70
2024/02/07 02:17:31;;;;;;;24.27;4.00;;;;;;;6.12;100.00;99381.47;5013458;28;22068;-70
2024/02/07 02:19:57;;;;;;;21.93;3.70;;;;;;;5.87;100.00;99333.31;5010247;28;21231;-70
2024/02/07 02:22:48;;;;;;;21.73;4.30;;;;;;;6.09;100.00;99397.84;5023209;28;20192;-70
2024/02/07 02:25:39;;;;;;;20.57;3.43;;;;;;;6.18;100.00;99377.16;5014643;28;20443;-70
2024/02/07 02:28:38;;;;;;;15.10;2.93;;;;;;;6.09;100.00;99382.69;5020361;28;20878;-70
2024/02/07 02:31:09;;;;;;;25.70;4.03;;;;;;;5.04;100.00;99223.84;5023620;28;20526;-69
2024/02/07 02:33:36;;;;;;;20.83;3.60;;;;;;;5.89;100.00;99355.22;5020625;28;20541;-70
2024/02/07 02:36:04;;;;;;;24.17;4.67;;;;;;;6.22;100.00;99392.53;5020711;28;20470;-69
2024/02/07 02:38:35;;;;;;;27.00;4.50;;;;;;;6.07;100.00;99414.00;5034706;28;20463;-70
2024/02/07 02:41:03;;;;;;;19.30;3.80;;;;;;;6.02;100.00;99429.00;5018799;28;20448;-70
2024/02/07 02:43:29;;;;;;;23.07;4.20;;;;;;;6.15;100.00;99421.00;5023833;28;20807;-70
2024/02/07 02:45:54;;;;;;;22.47;3.50;;;;;;;5.41;100.00;99302.22;5067534;22;20501;-72
2024/02/07 02:48:20;;;;;;;17.10;3.33;;;;;;;5.49;100.00;99323.28;5014678;28;20461;-74
2024/02/07 02:50:45;;;;;;;16.73;4.93;;;;;;;6.04;100.00;99397.63;5007478;28;20504;-75
2024/02/07 02:53:17;;;;;;;17.00;2.90;;;;;;;5.96;100.00;99422.63;5007533;28;20247;-75
2024/02/07 02:55:45;;;;;;;18.07;3.40;;;;;;;6.03;100.00;99409.31;5004620;28;20309;-75
2024/02/07 02:58:11;;;;;;;22.17;3.50;;;;;;;4.61;100.00;99163.88;5004293;28;20960;-74
2024/02/07 03:00:46;;;;;;;22.33;3.93;;;;;;;5.79;100.00;99354.84;5007212;28;20431;-74
2024/02/07 03:03:12;;;;;;;16.90;2.70;;;;;;;6.17;100.00;99404.81;5021097;28;20474;-74
2024/02/07 03:10:38;;;;;;;12.83;2.43;;;;;;;5.17;100.00;99323.00;5004745;28;20439;-74
2024/02/07 03:13:04;;;;;;;16.23;3.20;;;;;;;6.06;100.00;99417.72;4999801;28;20467;-74
2024/02/07 03:15:30;;;;;;;20.10;3.00;;;;;;;5.90;100.00;99402.09;5007738;28;20444;-74
2024/02/07 03:17:56;;;;;;;19.70;3.10;;;;;;;5.29;100.00;99287.84;5004935;28;20824;-74
2024/02/07 03:20:22;;;;;;;19.00;2.90;;;;;;;5.87;100.00;99390.03;5003897;28;20452;-74
2024/02/07 03:22:49;;;;;;;16.77;3.60;;;;;;;6.05;100.00;99424.06;5001798;28;20501;-75
2024/02/07 03:25:16;;;;;;;21.97;3.43;;;;;;;6.17;100.00;99420.81;5023493;28;20442;-74
2024/02/07 03:27:46;;;;;;;23.70;3.30;;;;;;;5.86;100.00;99372.41;5003632;28;20459;-74
2024/02/07 03:30:15;;;;;;;20.90;3.57;;;;;;;6.21;100.00;99480.59;5006233;28;20440;-74
2024/02/07 03:32:41;;;;;;;19.57;3.60;;;;;;;6.20;100.00;99485.09;5002782;28;20467;-74
2024/02/07 03:35:07;;;;;;;19.27;3.20;;;;;;;6.09;100.00;99522.97;5004752;28;20535;-75
2024/02/07 03:37:33;;;;;;;16.07;2.70;;;;;;;5.97;100.00;99533.38;5008139;28;20462;-75
2024/02/07 03:39:59;;;;;;;16.73;2.77;;;;;;;6.09;100.00;99553.06;5002125;28;20268;-75
2024/02/07 03:42:24;;;;;;;13.10;3.27;;;;;;;5.49;100.00;99484.69;4999270;28;20930;-75
2024/02/07 03:45:03;;;;;;;12.90;2.47;;;;;;;5.57;100.00;99508.47;5004931;28;20185;-75
2024/02/07 03:47:30;;;;;;;14.63;2.70;;;;;;;5.70;100.00;99590.16;5004692;28;20258;-75
2024/02/07 03:49:57;;;;;;;15.17;3.00;;;;;;;5.97;100.00;99657.66;5000783;28;20452;-75
2024/02/07 03:52:22;;;;;;;16.80;3.00;;;;;;;5.88;100.00;99606.41;4999764;28;20469;-75
2024/02/07 03:54:50;;;;;;;16.63;3.30;;;;;;;6.20;100.00;99666.16;5001513;28;20445;-75
2024/02/07 03:57:22;;;;;;;17.60;3.70;;;;;;;5.25;100.00;99560.47;5002288;28;20190;-74
2024/02/07 03:59:48;;;;;;;19.73;2.87;;;;;;;6.14;100.00;99653.66;5001985;28;20428;-76
2024/02/07 04:02:21;;;;;;;19.07;3.20;;;;;;;6.16;100.00;99666.75;5000502;28;20945;-74
2024/02/07 04:04:49;;;;;;;24.10;3.20;;;;;;;5.98;100.00;99668.09;4998433;28;20228;-75
2024/02/07 04:07:18;;;;;;;17.50;3.23;;;;;;;5.68;100.00;99642.75;5016877;28;20479;-75
2024/02/07 04:09:43;;;;;;;19.80;3.20;;;;;;;5.41;100.00;99611.50;4999608;28;20905;-75
2024/02/07 05:17:11;;;;;;;13.10;2.20;;;;;;;5.69;100.00;99990.25;5004613;28;20827;-75
2024/02/07 05:19:37;;;;;;;14.60;2.73;;;;;;;4.34;100.00;99808.09;5002317;28;20490;-75
2024/02/07 05:22:03;;;;;;;16.13;2.30;;;;;;;5.60;100.00;100042.75;5003521;28;20196;-75
2024/02/07 05:24:28;;;;;;;14.03;2.53;;;;;;;4.79;100.00;99903.66;5001591;28;20185;-75
2024/02/07 05:26:54;;;;;;;14.53;2.70;;;;;;;5.70;100.00;100007.84;5000727;28;20268;-75
2024/02/07 05:29:19;;;;;;;14.40;3.37;;;;;;;5.29;100.00;99955.22;4996546;28;20337;-75
2024/02/07 05:31:45;;;;;;;15.97;2.50;;;;;;;5.78;100.00;100002.44;5000128;28;20196;-75
2024/02/07 05:34:11;;;;;;;13.57;2.97;;;;;;;5.91;100.00;100004.44;5004260;28;20551;-75
2024/02/07 05:36:37;;;;;;;13.30;2.63;;;;;;;5.40;100.00;99938.78;4997075;28;20568;-76
2024/02/07 05:39:02;;;;;;;13.50;2.30;;;;;;;4.97;100.00;99824.38;5000297;28;20452;-76
2024/02/07 05:41:28;;;;;;;13.10;2.70;;;;;;;5.75;100.00;99954.91;4998442;28;20193;-75
2024/02/07 05:43:53;;;;;;;16.43;2.60;;;;;;;4.92;100.00;99818.81;4999214;28;20604;-76
2024/02/07 05:46:21;;;;;;;16.03;3.13;;;;;;;5.71;100.00;99941.16;5001291;28;20203;-76
2024/02/07 05:48:46;;;;;;;17.07;2.37;;;;;;;5.37;100.00;99925.84;5001171;28;20212;-75
2024/02/07 05:51:20;;;;;;;18.50;2.60;;;;;;;5.38;100.00;99931.00;5000292;28;20980;-75
2024/02/07 05:53:45;;;;;;;16.70;2.77;;;;;;;4.98;100.00;99871.22;4998757;28;20352;-75
2024/02/07 05:56:11;;;;;;;11.50;2.87;;;;;;;4.62;100.00;99832.13;5003793;28;20435;-75
2024/02/07 05:58:39;;;;;;;13.97;1.70;;;;;;;5.51;100.00;100010.09;5003512;28;20215;-76
2024/02/07 06:01:06;;;;;;;9.97;2.00;;;;;;;4.82;100.00;99912.09;5004059;28;20502;-75
2024/02/07 06:03:32;;;;;;;9.07;1.87;;;;;;;5.35;100.00;100058.16;5000110;28;20498;-74
2024/02/07 06:05:58;;;;;;;9.33;1.60;;;;;;;4.72;100.00;99957.53;5000920;28;20537;-75
2024/02/07 06:08:24;;;;;;;10.83;1.63;;;;;;;5.33;100.00;100055.72;5002731;28;20581;-75
2024/02/07 06:10:54;;;;;;;10.00;1.90;;;;;;;5.47;100.00;100051.41;5003005;28;20432;-75
2024/02/07 06:13:20;;;;;;;12.43;2.20;;;;;;;4.59;100.00;99927.28;4999178;28;20712;-75
2024/02/07 06:15:45;;;;;;;9.77;1.83;;;;;;;5.40;100.00;100051.28;5003784;28;20432;-75
2024/02/07 06:18:11;;;;;;;14.23;2.23;;;;;;;4.79;100.00;99962.94;5005468;28;20756;-75
2024/02/07 06:20:36;;;;;;;14.67;2.90;;;;;;;5.14;100.00;100032.31;5001165;28;20185;-75
2024/02/07 06:23:02;;;;;;;10.27;2.27;;;;;;;5.35;100.00;100039.56;5002930;28;20219;-75
2024/02/07 06:25:27;;;;;;;12.93;2.57;;;;;;;5.11;100.00;100045.97;5005995;28;20291;-74
2024/02/07 06:27:53;;;;;;;13.90;2.37;;;;;;;5.08;100.00;100043.69;5005010;28;20201;-75
2024/02/07 06:30:18;;;;;;;14.13;2.53;;;;;;;4.29;100.00;99922.75;5003023;28;20435;-75
2024/02/07 06:32:44;;;;;;;13.77;2.80;;;;;;;4.35;100.00;99931.84;5003393;28;20589;-75
2024/02/07 06:35:09;;;;;;;12.90;2.17;;;;;;;4.37;100.00;99908.59;5001342;28;20209;-74
2024/02/07 06:37:35;;;;;;;17.37;3.40;;;;;;;5.16;100.00;100065.69;5004952;28;20291;-75
2024/02/07 06:40:00;;;;;;;13.90;2.70;;;;;;;5.03;100.00;100073.47;5018564;28;20524;-75
2024/02/07 06:42:26;;;;;;;15.40;2.63;;;;;;;5.08;100.00;100095.00;5007456;28;20220;-75
2024/02/07 06:44:51;;;;;;;12.20;2.50;;;;;;;5.22;100.00;100088.06;5004625;28;20186;-75
2024/02/07 06:47:17;;;;;;;13.20;3.30;;;;;;;5.14;100.00;100122.72;5003937;28;20590;-75
2024/02/07 06:49:42;;;;;;;18.03;3.23;;;;;;;4.65;100.00;100049.56;5003170;28;20589;-75
2024/02/07 06:52:07;;;;;;;15.83;2.40;;;;;;;4.59;100.00;100066.22;5006048;28;20180;-75
2024/02/07 06:54:33;;;;;;;14.60;3.07;;;;;;;4.88;100.00;100126.59;5005165;28;20180;-75
2024/02/07 06:56:58;;;;;;;11.13;2.23;;;;;;;5.11;100.00;100113.25;5004319;28;20181;-74
2024/02/07 06:59:24;;;;;;;13.60;2.53;;;;;;;4.42;100.00;100016.91;4997473;28;20209;-75
2024/02/07 07:01:49;;;;;;;13.13;2.50;;;;;;;4.59;100.00;100091.97;4999554;28;20184;-75
2024/02/07 07:04:15;;;;;;;16.70;5.17;;;;;;;4.23;100.00;100005.78;5001326;28;20653;-74
2024/02/07 07:06:40;;;;;;;16.40;4.00;;;;;;;4.08;100.00;99994.28;4998098;28;20189;-74
2024/02/07 07:09:06;;;;;;;18.83;3.30;;;;;;;4.94;100.00;100086.00;4999983;28;20204;-75
2024/02/07 07:11:31;;;;;;;17.63;3.10;;;;;;;4.77;100.00;100095.13;4997413;28;20290;-75
2024/02/07 07:13:57;;;;;;;11.50;2.73;;;;;;;4.79;100.00;100108.25;5002818;28;20553;-75
2024/02/07 07:16:23;;;;;;;14.73;2.93;;;;;;;4.75;100.00;100089.19;4999682;28;20685;-76
2024/02/07 07:18:52;;;;;;;15.40;2.67;;;;;;;4.17;100.00;100033.03;5008050;28;20456;-75
2024/02/07 07:21:19;;;;;;;14.80;1.93;;;;;;;4.32;100.00;100032.28;5003473;28;20189;-74
2024/02/07 07:23:44;;;;;;;16.73;3.07;;;;;;;4.49;100.00;100057.69;5000037;28;20835;-76
2024/02/07 07:26:09;;;;;;;18.57;2.80;;;;;;;5.07;100.00;100186.41;5001409;28;20474;-75
2024/02/07 07:28:35;;;;;;;16.43;2.30;;;;;;;4.94;100.00;100172.88;4999572;28;20208;-75
2024/02/07 07:31:00;;;;;;;13.27;2.30;;;;;;;5.46;100.00;100197.84;5002722;28;20189;-75
2024/02/07 07:33:26;;;;;;;11.77;2.23;;;;;;;4.62;100.00;100158.00;5001049;28;20296;-76
2024/02/07 07:35:51;;;;;;;15.70;3.00;;;;;;;4.05;100.00;100072.44;5001933;28;20192;-75
2024/02/07 07:38:17;;;;;;;15.00;2.40;;;;;;;4.74;100.00;100201.75;4998358;28;20208;-75
2024/02/07 07:40:42;;;;;;;13.43;2.70;;;;;;;5.21;100.00;100224.69;5000363;28;20227;-75
2024/02/07 07:43:08;;;;;;;11.07;2.10;;;;;;;4.63;100.00;100165.81;5000115;28;20189;-75
2024/02/07 07:45:33;;;;;;;11.90;2.73;;;;;;;4.66;100.00;100136.25;5001516;28;20197;-75
2024/02/07 07:47:59;;;;;;;13.80;2.43;;;;;;;4.34;100.00;100128.47;4998890;28;20697;-75
2024/02/07 07:50:25;;;;;;;14.50;3.07;;;;;;;4.06;100.00;100105.09;5000419;28;20265;-75
2024/02/07 07:52:50;;;;;;;12.43;1.60;;;;;;;5.09;100.00;100245.56;5003298;28;20284;-75
2024/02/07 07:55:15;;;;;;;12.70;2.43;;;;;;;4.95;100.00;100220.56;4998050;28;20213;-75
2024/02/07 07:57:41;;;;;;;10.80;2.03;;;;;;;5.00;100.00;100235.97;5003569;28;20266;-75
2024/02/07 08:00:07;;;;;;;14.20;1.80;;;;;;;4.56;100.00;100126.84;5002307;28;20186;-76
2024/02/07 08:02:33;;;;;;;11.80;2.20;;;;;;;4.79;100.00;100145.44;4999298;28;20181;-76
2024/02/07 08:04:58;;;;;;;12.43;2.43;;;;;;;5.30;100.00;100209.50;4999205;28;20452;-76
2024/02/07 08:07:23;;;;;;;10.60;2.03;;;;;;;5.19;100.00;100177.00;5001160;28;20193;-76
2024/02/07 08:09:49;;;;;;;16.00;2.80;;;;;;;5.44;100.00;100244.09;5001215;28;20199;-76
2024/02/07 08:12:17;;;;;;;7.97;2.13;;;;;;;5.11;100.00;100177.06;4998196;28;20417;-76
2024/02/07 08:14:42;;;;;;;9.70;1.80;;;;;;;4.68;100.00;100128.09;5002438;28;20177;-76
2024/02/07 08:17:08;;;;;;;14.87;2.17;;;;;;;4.52;100.00;100131.69;5005592;28;20443;-76
2024/02/07 08:19:33;;;;;;;11.90;2.50;;;;;;;4.78;100.00;100159.75;5003155;28;20717;-76
2024/02/07 08:21:59;;;;;;;11.17;2.53;;;;;;;4.83;100.00;100175.97;5004438;28;20728;-76
2024/02/07 08:24:25;;;;;;;12.93;2.40;;;;;;;4.97;100.00;100254.91;5003986;28;20649;-75
2024/02/07 08:26:51;;;;;;;17.33;2.60;;;;;;;4.62;100.00;100150.03;4995153;28;20585;-75
2024/02/07 08:29:17;;;;;;;9.00;1.80;;;;;;;5.43;100.00;100270.84;5001314;28;21055;-75
2024/02/07 08:31:42;;;;;;;15.00;3.27;;;;;;;5.01;100.00;100188.97;5001700;28;20197;-76
2024/02/07 08:34:08;;;;;;;8.90;1.63;;;;;;;5.65;100.00;100278.00;5002608;28;20696;-75
2024/02/07 08:36:33;;;;;;;9.67;1.97;;;;;;;5.83;100.00;100320.22;5001532;28;20193;-76
2024/02/07 08:38:59;;;;;;;15.30;2.33;;;;;;;4.83;100.00;100210.50;4998136;28;20366;-75
2024/02/07 08:41:25;;;;;;;11.60;2.00;;;;;;;4.92;100.00;100217.44;5001823;28;20200;-76
2024/02/07 08:46:25;;;;;;;9.47;1.63;;;;;;;3.52;100.00;100006.88;5037179;28;20862;-75
2024/02/07 08:48:50;;;;;;;15.80;2.47;;;;;;;4.52;100.00;100212.19;5032040;28;20466;-74
2024/02/07 08:51:16;;;;;;;8.90;1.77;;;;;;;3.61;100.00;100056.22;5036589;28;20217;-73
2024/02/07 08:53:47;;;;;;;18.80;2.23;;;;;;;4.67;100.00;100200.81;5041896;28;20220;-74
2024/02/07 08:56:13;;;;;;;11.37;2.20;;;;;;;4.97;100.00;100266.38;5041016;28;20237;-74
2024/02/07 08:58:38;;;;;;;13.50;2.30;;;;;;;4.40;100.00;100204.81;5040274;28;20457;-74
2024/02/07 09:01:05;;;;;;;13.63;2.53;;;;;;;5.65;100.00;100349.81;5040149;28;20559;-74
2024/02/07 09:03:33;;;;;;;12.37;2.47;;;;;;;5.63;100.00;100389.06;5038740;28;20700;-74
2024/02/07 09:05:59;;;;;;;14.57;2.33;;;;;;;3.16;100.00;100012.69;5040713;28;20446;-74
2024/02/07 09:08:26;;;;;;;16.50;2.20;;;;;;;3.30;100.00;100041.13;5040203;28;20457;-74
2024/02/07 09:10:52;;;;;;;11.00;2.33;;;;;;;5.15;100.00;100283.88;5043501;28;20222;-74
2024/02/07 09:13:20;;;;;;;12.37;2.10;;;;;;;4.36;100.00;100209.63;5042334;28;21160;-74
2024/02/07 09:15:45;;;;;;;12.13;2.17;;;;;;;4.69;100.00;100223.56;5041213;28;20269;-74
2024/02/07 09:18:11;;;;;;;11.57;2.20;;;;;;;4.76;100.00;100231.63;5040618;28;20489;-74
2024/02/07 09:20:39;;;;;;;8.70;1.87;;;;;;;4.58;100.00;100156.72;5043347;28;20198;-74
2024/02/07 09:23:04;;;;;;;18.20;2.60;;;;;;;3.95;100.00;100092.22;5040298;28;20268;-74
2024/02/07 09:25:30;;;;;;;9.83;2.20;;;;;;;5.38;100.00;100326.41;5037366;28;20487;-74
2024/02/07 09:27:57;;;;;;;12.73;2.47;;;;;;;3.75;100.00;99997.16;5041943;28;20204;-75
2024/02/07 09:30:23;;;;;;;11.07;1.90;;;;;;;4.82;100.00;100171.66;5039787;28;20188;-74
2024/02/07 09:32:48;;;;;;;13.83;2.17;;;;;;;5.55;100.00;100301.34;5039609;28;20467;-74
2024/02/07 09:35:14;;;;;;;11.37;1.77;;;;;;;5.03;100.00;100246.22;5037345;28;20188;-74
2024/02/07 09:37:41;;;;;;;11.77;2.20;;;;;;;4.03;100.00;100070.94;5039298;28;20207;-74
2024/02/07 09:40:07;;;;;;;12.40;2.33;;;;;;;4.81;100.00;100188.63;5035324;28;20581;-74
2024/02/07 09:42:37;;;;;;;13.53;2.03;;;;;;;4.84;100.00;100246.72;5037722;28;20425;-74
2024/02/07 09:45:04;;;;;;;13.37;1.80;;;;;;;4.88;100.00;100222.25;5039267;28;20451;-74
2024/02/07 09:47:35;;;;;;;12.07;2.10;;;;;;;4.07;100.00;100066.94;5040745;28;20465;-74
2024/02/07 09:50:02;;;;;;;10.77;1.63;;;;;;;4.07;100.00;100088.97;5042612;28;20447;-74
2024/02/07 09:52:29;;;;;;;8.70;1.67;;;;;;;5.19;100.00;100258.59;5046079;28;21072;-74
2024/02/07 09:54:56;;;;;;;8.70;1.40;;;;;;;4.98;100.00;100230.00;5044680;28;20433;-74
2024/02/07 09:57:23;;;;;;;8.57;1.70;;;;;;;4.00;100.00;100106.63;5043530;28;20464;-74
2024/02/07 09:59:49;;;;;;;9.17;1.87;;;;;;;4.13;100.00;100099.91;5041654;28;20418;-74
2024/02/07 10:02:18;;;;;;;12.93;3.40;;;;;;;4.17;100.00;100078.16;5044442;28;20442;-74
2024/02/07 10:04:48;;;;;;;12.53;2.00;;;;;;;5.80;100.00;100347.19;5047550;28;20190;-74
2024/02/07 10:07:13;;;;;;;11.80;2.00;;;;;;;4.59;100.00;100161.84;5038073;28;20493;-74
2024/02/07 10:09:39;;;;;;;10.63;1.70;;;;;;;4.73;100.00;100218.72;5042050;28;20438;-74
2024/02/07 10:12:11;;;;;;;7.03;1.50;;;;;;;5.86;100.00;100404.22;5047525;28;20493;-74
2024/02/07 10:14:36;;;;;;;11.43;1.97;;;;;;;6.20;100.00;100451.72;5047314;28;20188;-74
2024/02/07 10:17:04;;;;;;;11.27;1.83;;;;;;;6.39;100.00;100469.03;5042447;28;20456;-74
2024/02/07 10:19:31;;;;;;;16.90;2.10;;;;;;;5.95;100.00;100389.88;5040847;28;20194;-74
2024/02/07 10:21:57;;;;;;;12.00;2.50;;;;;;;6.26;100.00;100435.03;5044422;28;20438;-74
2024/02/07 10:24:23;;;;;;;9.90;1.83;;;;;;;6.29;100.00;100469.28;5042994;28;20775;-74
2024/02/07 10:26:48;;;;;;;14.50;3.03;;;;;;;6.73;100.00;100507.69;5042447;28;20437;-74
2024/02/07 10:29:14;;;;;;;11.70;1.80;;;;;;;6.79;100.00;100509.63;5044990;28;20301;-74
2024/02/07 10:31:39;;;;;;;14.63;2.40;;;;;;;6.30;100.00;100433.66;5042366;28;20189;-74
2024/02/07 10:34:16;;;;;;;9.83;1.80;;;;;;;5.83;100.00;100385.94;5043707;28;20216;-74
2024/02/07 10:36:42;;;;;;;13.50;2.37;;;;;;;6.73;100.00;100529.84;5043737;28;20192;-74
2024/02/07 10:39:09;;;;;;;9.50;1.50;;;;;;;6.16;100.00;100430.94;5044628;28;20466;-74
2024/02/07 10:41:34;;;;;;;9.10;2.10;;;;;;;6.79;100.00;100549.63;5048751;28;20434;-74
2024/02/07 10:44:07;;;;;;;12.90;2.30;;;;;;;6.77;100.00;100549.00;5051109;28;20541;-74
2024/02/07 10:46:32;;;;;;;13.10;2.27;;;;;;;6.81;100.00;100552.13;5025989;28;20219;-74
2024/02/07 10:49:00;;;;;;;8.40;1.97;;;;;;;6.74;100.00;100560.84;5040298;28;20457;-74
2024/02/07 10:51:35;;;;;;;13.90;2.20;;;;;;;6.01;100.00;100460.19;5041188;28;20210;-74
2024/02/07 10:54:06;;;;;;;12.40;2.00;;;;;;;6.70;100.00;100564.84;5044583;28;20535;-74
2024/02/07 10:56:37;;;;;;;9.40;1.83;;;;;;;6.88;100.00;100563.69;5039755;28;20450;-74
2024/02/07 10:59:05;;;;;;;11.60;1.87;;;;;;;6.43;100.00;100493.50;5041592;28;20477;-74
2024/02/07 11:01:31;;;;;;;17.20;3.10;;;;;;;5.88;100.00;100404.88;5040205;28;20452;-74
2024/02/07 11:03:58;;;;;;;15.97;2.43;;;;;;;6.27;100.00;100451.84;5039832;28;20439;-74
2024/02/07 11:06:26;;;;;;;15.67;2.60;;;;;;;6.90;100.00;100562.50;5038867;28;20430;-74
2024/02/07 11:08:56;;;;;;;8.57;1.67;;;;;;;7.05;100.00;100556.38;5040350;28;21020;-74
2024/02/07 11:11:25;;;;;;;8.93;2.20;;;;;;;6.73;100.00;100537.00;5040155;28;20941;-75
2024/02/07 11:13:56;;;;;;;12.33;2.60;;;;;;;6.84;100.00;100557.09;5041504;28;20478;-74
2024/02/07 11:16:22;;;;;;;13.70;2.40;;;;;;;6.78;100.00;100578.13;5044497;28;20453;-75
2024/02/07 11:18:47;;;;;;;9.10;2.23;;;;;;;6.74;100.00;100544.84;5042475;28;20470;-74
2024/02/07 11:21:26;;;;;;;15.10;2.57;;;;;;;6.99;100.00;100558.75;5043823;28;20667;-74
2024/02/07 11:23:53;;;;;;;13.00;1.83;;;;;;;6.83;100.00;100574.91;5039889;28;20196;-73
2024/02/07 11:26:20;;;;;;;14.77;2.07;;;;;;;6.47;100.00;100463.63;5044234;28;20491;-74
2024/02/07 11:28:49;;;;;;;17.03;1.90;;;;;;;7.22;100.00;100579.19;5053989;28;20458;-74
2024/02/07 11:31:17;;;;;;;15.53;2.20;;;;;;;7.07;100.00;100570.34;5041613;28;20446;-74
2024/02/07 11:33:43;;;;;;;10.97;2.47;;;;;;;7.21;100.00;100567.69;5040715;28;20478;-74
2024/02/07 11:36:16;;;;;;;11.93;2.87;;;;;;;6.83;100.00;100446.97;5039742;28;20442;-74
2024/02/07 11:38:56;;;;;;;13.07;2.30;;;;;;;7.22;100.00;100528.50;5039838;28;20546;-74
2024/02/07 11:41:21;;;;;;;13.80;2.50;;;;;;;6.79;100.00;100485.63;5037997;28;20441;-74
2024/02/07 11:43:53;;;;;;;11.30;2.40;;;;;;;6.97;100.00;100480.78;5047529;28;20426;-74
2024/02/07 11:46:21;;;;;;;8.80;1.60;;;;;;;6.82;100.00;100481.78;5043802;28;20441;-74
2024/02/07 11:48:52;;;;;;;10.43;1.77;;;;;;;7.17;100.00;100562.91;5044825;28;20496;-74
2024/02/07 11:51:17;;;;;;;15.13;3.00;;;;;;;7.08;100.00;100548.00;5046022;28;21998;-74
2024/02/07 11:53:43;;;;;;;13.33;2.13;;;;;;;7.17;100.00;100563.72;5045486;28;20466;-74
2024/02/07 11:56:12;;;;;;;9.00;1.60;;;;;;;6.60;100.00;100512.84;5044774;28;20691;-74
2024/02/07 11:58:40;;;;;;;13.50;2.13;;;;;;;6.10;100.00;100462.63;5043477;28;20208;-74
2024/02/07 12:01:11;;;;;;;11.27;2.10;;;;;;;6.82;100.00;100521.78;5043798;28;21023;-74
2024/02/07 12:03:38;;;;;;;12.30;1.93;;;;;;;6.76;100.00;100480.66;5045564;28;20449;-74
2024/02/07 12:06:10;;;;;;;15.33;2.00;;;;;;;7.30;100.00;100554.28;5042186;28;20811;-74
2024/02/07 12:08:39;;;;;;;15.47;2.30;;;;;;;6.91;100.00;100558.00;5039416;28;20600;-74
2024/02/07 12:11:10;;;;;;;12.03;2.20;;;;;;;7.31;100.00;100500.72;5042378;28;20448;-74
2024/02/07 12:13:36;;;;;;;13.73;2.47;;;;;;;7.88;100.00;100550.69;5039813;28;20481;-75
2024/02/07 12:16:04;;;;;;;14.50;2.97;;;;;;;7.88;100.00;100550.69;5042291;28;20785;-74
2024/02/07 12:18:30;;;;;;;11.90;2.00;;;;;;;7.77;100.00;100537.81;5042748;28;20208;-74
2024/02/07 12:21:01;;;;;;;14.23;2.60;;;;;;;7.52;100.00;100443.06;5042334;28;20448;-74
2024/02/07 12:23:28;;;;;;;10.03;2.00;;;;;;;8.27;100.00;100543.28;5044923;28;20976;-74
2024/02/07 12:26:01;;;;;;;12.50;2.60;;;;;;;7.61;100.00;100460.66;5042767;28;20912;-74
2024/02/07 12:28:27;;;;;;;12.47;1.87;;;;;;;8.24;100.00;100461.66;5043130;28;20966;-74
2024/02/07 12:30:57;;;;;;;9.63;2.13;;;;;;;8.41;100.00;100539.75;5042533;28;20442;-74
2024/02/07 12:33:23;;;;;;;13.90;2.83;;;;;;;8.56;100.00;100547.69;5042201;28;20465;-74